Chisholm Hibbing Airport Hibbing US
ICAO: KHIB
IATA: HIB
Category: Large
Scheduled Services: Yes

Elevation: 1354 ft
TransAlt. 18000 ft.

Airport Communications:
DULUTH APP/DEP:125.45
ASOS:126.425
DULUTH CLNC DEL:127.4
PRINCETON RDO:122.6
CTAF/UNICOM:123

KHIB Zoom In..

If you have problems with the map follow the link
https://www.worldairports.se/pages/airport.php?
ICAO=KHIB

Runways:

(A) RW 04 length 3075 ft width 75 ft
---- / hdg 47

(B) RW 13 length 6758 ft width 150 ft
ILS 110.50 / hdg 130

(C) RW 22 length 3075 ft width 75 ft
---- / hdg 227

(D) RW 31 length 6758 ft width 150 ft
ILS 109.50 / hdg 310

Location; KHIB
Day. 16 / Time. 02.53 Zulu
* Altimeter: 29.73
* Temperature: 00° c. 32°f.
* Wind from: 330° Speed 13 kn.
Dewpoint: -01° c.
Visibility: 6 Statute Miles.
Clouds: Overcast 600 ft.
Conditions: Mist.

KHIB 160253Z AUTO 33013KT 6SM BR OVC006 00/M01 A2973 RMK AO2 SNE02 SLP086 P0000 60001 T00001011 53001


Wind From 330°
Speed 13 kn.

 
 
jpsmedia.com for Web Design worldairports.se 2018   terms of use